Airfield :
LOGIN :

Register | Disclaimer

   EN    FR    IT 

 










Legend :    VFR   Marginal VFR   IFR   Intensive IFR   Very Intensive IFR
Visi :
Ceiling :
>= 8 km
>= 3000ft
5 to 8 km
1000 to 3000 ft
1500m to 5 km
500 to 1000 ft
800 to 1500m
200 to 500 ft
< 800m
< 200 ft
Symbols :   Thunderstorms  Fog  Heavy snow  Heavy precipitations  Wind > 20 kt
SIGMETs :     Misc.  Thunderstorms  Icing  Turbulence  Mountain Waves  Volcanic Ashes






- Airport Elevation : 249 ft


EGOS - RAF Shawbury

CURRENT METAR :
  • 241520Z 25012KT 9999 FEW025 23/16 Q1013 NOSIG RMK BLU BLU

EXPIRED METARs :
  • 241450Z 25009KT 9999 FEW025 BKN035 22/16 Q1013 NOSIG RMK BLU BLU
  • 241419Z 25010KT 9999 FEW025 SCT035 22/17 Q1013 NOSIG RMK BLU BLU
  • 241350Z 24011KT 9999 FEW024 BKN027 21/16 Q1014 TEMPO SCT024 RMK BLU TEMPO WHT
  • 241320Z 25013KT 9999 FEW024 BKN030 22/16 Q1014 NOSIG RMK BLU BLU
  • 241250Z 26013KT 9999 FEW025 SCT030 21/16 Q1014 NOSIG RMK BLU BLU

TAF TAF EGOS
Valid from the 24 at 12:00 until the 24 at 17:00 UTC


241043Z 2412/2417 26012KT 9999 FEW020 BKN060
PROB40
TEMPO 2412/2417 BKN018



MET'MAP, your aeronautical weather chart ! - Copyright ORBIFLY December 2007 - Disclaimer

ORBIFLY MET'MAP TEAM :

Programming & Development : Alexandra Zaïnal
Concept & original design : Baudouin d'Aumeries
Assistance for programming : Marc-Olivier Méhu
Technical & hardware support : Manuel Goepfert

Contact : metmap@orbifly.com




SOURCES & CREDITS :

   NOAA